Weather observations for the past three days for
Perry Municipal Airport
Metric (Imperial)
Date Time (cdt) Wind (kph) Vis. (km) Weather Sky Cond. Temperature (ºC) Relative Humidity Wind Chill (°C) Heat Index (°C) Pressure Precipitation (cm)
Air Dwpt 6 hour altimeter (cm) sea level (mb) 1 hr 3 hr 6 hr
Max. Min.
07 05:55 SW 7 16.09 Overcast SCT070 BKN100 OVC120 4.9 -2.7 58% 3 75.87 0.0
07 05:35 S 6 16.09 Mostly Cloudy FEW075 BKN110 BKN130 4.9 -2.8 58% 75.87 0.0
07 05:15 S 7 16.09 Partly Cloudy FEW080 SCT100 SCT120 5.3 -2.8 56% 4 75.87 0.0
07 04:55 S 7 16.09 Partly Cloudy SCT095 4.9 -3 57% 3 75.9 0.0
07 04:35 S 11 16.09 Partly Cloudy SCT100 4 -2.8 62% 2 75.9 0.0
07 04:15 S 7 16.09 Partly Cloudy SCT100 4.4 -2.4 62% 3 75.92 0.0
07 03:55 S 7 16.09 Partly Cloudy SCT090 6 -3.5 51% 5 75.95 0.0
07 03:35 S 6 16.09 Overcast OVC090 6.7 -3.3 49% 75.97 0.0
07 03:15 Calm 16.09 Overcast OVC090 5.4 -1.4 62% 76 0.0
07 02:55 SE 7 16.09 Overcast OVC085 5.3 -1.8 61% 4 76 0.0
07 02:15 S 9 16.09 Overcast SCT100 OVC120 5.9 -3.9 50% 4 76.02 0.0
07 01:55 S 7 16.09 Overcast OVC100 5.5 -4.1 50% 4 76.05 0.0
07 01:35 S 7 16.09 Overcast OVC110 4.8 -4.2 53% 3 76.05 0.0
07 01:15 SW 11 16.09 Overcast OVC100 4.3 -4.7 52% 2 76.07 0.0
07 00:55 S 7 16.09 Mostly Cloudy BKN100 4.2 -5 52% 3 76.07 0.0
07 00:35 S 11 16.09 Fair CLR 5.5 -5.1 47% 3 76.07 0.0
07 00:15 S 7 16.09 Fair CLR 4 -5 52% 2 76.1 0.0
06 23:55 S 7 16.09 Fair CLR 3.9 -4.9 53% 2 76.1 0.0
06 23:35 S 7 16.09 Fair CLR 4.8 -4.8 50% 3 76.1 0.0
06 23:15 S 6 16.09 Fair CLR 4.4 -5.5 49% 76.12 0.0
06 22:55 S 6 16.09 Fair CLR 5.3 -5.5 46% 76.12 0.0
06 22:35 S 6 16.09 Fair CLR 5.2 -5.7 46% 76.15 0.0
06 22:15 SW 9 16.09 Fair CLR 5.1 -7 42% 3 76.15 0.0
06 21:55 SW 9 12.87 Fair CLR 6 -7.3 38% 4 76.15 0.0
06 21:35 Calm 16.09 Fair CLR 7.4 -6.9 36% 76.15 0.0
06 21:15 Calm 14.48 Fair CLR 6.6 -6.8 38% 76.15 0.0
06 20:55 Calm 9.66 Fair with Haze CLR 6.9 -6.7 38% 76.12 0.0
06 20:35 NW 6 16.09 Fair CLR 8.6 -7.2 32% 76.12 0.0
06 20:15 NW 6 16.09 Fair CLR 10.9 -6.4 29% 76.12 0.0
06 19:55 NW 9 16.09 Fair CLR 12.1 -6.8 26% 76.12 0.0
06 19:35 NW 13 16.09 Fair CLR 12.6 -6.4 26% 76.12 0.0
06 19:15 NW 17 16.09 A Few Clouds FEW090 12.8 -6.3 26% 76.15 0.0
06 18:55 NW 24 16.09 Mostly Cloudy BKN090 13.8 -6.3 24% 76.17 0.0
06 18:35 NW 22 16.09 Overcast OVC090 14 -7.4 22% 76.17 0.0
06 18:15 W 17 16.09 Overcast OVC085 13.4 -6.1 25% 76.17 0.0
06 17:55 NW 22 G 33 16.09 Overcast OVC090 13.6 -6.5 24% 76.2 0.0
06 17:35 NW 28 16.09 Mostly Cloudy BKN090 14.5 -6.6 23% 76.2 0.0
06 17:15 W 30 G 39 16.09 Overcast OVC085 14.6 -7.3 21% 76.17 0.0
06 16:55 NW 30 16.09 Mostly Cloudy BKN085 13.6 -7.3 23% 76.17 0.0
06 16:35 NW 26 G 35 16.09 Partly Cloudy SCT080 14.4 -6.1 24% 76.2 0.0
06 16:15 NW 33 16.09 Overcast and Breezy OVC085 14.6 -6.7 22% 76.2 0.0
06 15:55 W 20 G 35 16.09 Mostly Cloudy BKN085 13.8 -6.7 24% 76.23 0.0
06 15:35 NW 22 G 35 16.09 Mostly Cloudy BKN085 12.4 -6.4 27% 76.25 0.0
06 15:15 NW 30 G 43 16.09 Mostly Cloudy BKN085 14 -6.5 24% 76.25 0.0
06 14:55 NW 19 16.09 Overcast BKN080 OVC090 12.5 -6.5 26% 76.28 0.0
06 14:35 NW 31 G 37 16.09 Mostly Cloudy BKN075 13.3 -5 28% 76.28 0.0
06 14:15 NW 33 G 46 16.09 Mostly Cloudy and Breezy BKN080 13 -5.5 27% 76.28 0.0
06 13:55 NW 31 G 44 16.09 Partly Cloudy SCT075 13.9 -5.8 25% 76.3 0.0
06 13:35 NW 30 G 41 16.09 Mostly Cloudy BKN070 13.7 -6.2 25% 76.28 0.0
06 13:15 N 26 G 41 16.09 Mostly Cloudy BKN070 12.2 -4.9 30% 76.3 0.0
06 12:55 NW 20 G 41 16.09 Mostly Cloudy BKN075 12.3 -6.5 27% 76.33 0.0
06 12:35 NW 30 G 41 16.09 Mostly Cloudy BKN075 12.3 -5.8 28% 76.33 0.0
06 12:15 W 26 16.09 Overcast OVC070 11.3 -6.2 29% 76.33 0.0
06 11:55 NW 24 16.09 Overcast OVC070 11 -5.8 31% 76.35 0.0
06 11:35 NW 24 G 31 16.09 Overcast OVC070 10.9 -5.4 32% 76.35 0.0
06 11:15 NW 30 16.09 Overcast OVC070 10.9 -5.6 31% 76.33 0.0
06 10:55 NW 19 G 39 16.09 Overcast OVC065 10.8 -5.7 31% 76.33 0.0
06 10:35 NW 24 G 33 16.09 Mostly Cloudy BKN060 10.8 -4.5 34% 76.33 0.0
06 10:15 NW 19 G 28 16.09 A Few Clouds FEW060 10.6 -4.3 35% 76.33 0.0
06 09:55 NW 15 G 30 16.09 Fair CLR 10.2 -4.7 35% 76.33 0.0
06 09:35 W 13 16.09 Fair CLR 9.5 -4.1 38% 8 76.33 0.0
06 09:15 Vrbl 9 16.09 Fair CLR 9.1 -4.1 39% 8 76.33 0.0
06 08:55 NW 11 16.09 Fair CLR 8.4 -4 42% 7 76.33 0.0
06 08:35 N 7 16.09 Fair CLR 7.4 -4 45% 6 76.3 0.0
06 08:15 NW 11 16.09 Fair CLR 6.8 -3.1 50% 5 76.3 0.0
06 07:55 NW 15 16.09 Fair CLR 5.8 -2.7 55% 3 76.3 0.0
06 07:35 NW 15 16.09 Fair CLR 5.1 -3.2 55% 2 76.28 0.0
06 07:15 NW 11 12.87 Fair CLR 3.3 -3.2 63% 1 76.25 0.0
06 06:55 W 11 12.87 Fair CLR 1.3 -3.4 71% -2 76.23 0.0
06 06:35 W 9 12.87 Fair CLR 0.5 -3.8 73% -2 76.2 0.0
06 06:15 W 9 12.87 Fair CLR 0.5 -4 72% -2 76.2 0.0
06 05:55 NW 9 14.48 Fair CLR 2.2 -4.1 63% -0 76.17 0.0
06 05:35 NW 13 16.09 Fair CLR 3.1 -4.1 60% 0 76.17 0.0
06 05:15 NW 11 16.09 Fair CLR 3.8 -3.9 58% 1 76.17 0.0
06 04:55 NW 11 16.09 Fair CLR 3.7 -3.5 60% 1 76.15 0.0
06 04:35 NW 11 16.09 Fair CLR 3.8 -3.3 60% 1 76.15 0.0
06 04:15 NW 11 16.09 A Few Clouds FEW160 4.2 -3.4 58% 2 76.12 0.0
06 03:55 NW 11 16.09 A Few Clouds FEW160 4.6 -3.7 55% 2 76.12 0.0
06 03:35 NW 11 16.09 Fair CLR 4.4 -3.8 56% 2 76.1 0.0
06 03:15 NW 9 16.09 Fair CLR 3.2 -3.8 60% 1 76.1 0.0
06 02:55 NW 9 16.09 Fair CLR 3.2 -4.3 58% 1 76.1 0.0
06 02:35 NW 9 16.09 Fair CLR 1.8 -4.9 61% -1 76.07 0.0
06 02:15 NW 9 16.09 Fair CLR 1.7 -5 61% -1 76.07 0.0
06 01:55 W 11 16.09 A Few Clouds FEW200 1.8 -5.3 60% -1 76.07 0.0
06 01:35 W 11 16.09 Fair CLR 2 -5.2 59% -1 76.07 0.0
06 01:15 NW 11 16.09 Fair CLR 3.2 -5.4 54% 1 76.07 0.0
06 00:55 NW 13 16.09 Fair CLR 3.9 -5.4 51% 1 76.07 0.0
06 00:15 NW 15 16.09 Fair CLR 5.1 -5.3 47% 2 76.02 0.0
05 23:55 NW 17 16.09 Fair CLR 5.7 -5.4 45% 3 76.02 0.0
05 23:35 NW 15 16.09 Fair CLR 6.3 -5.4 43% 4 76 0.0
05 23:15 NW 15 16.09 Fair CLR 6.6 -5 44% 4 76 0.0
05 22:55 NW 15 16.09 Fair CLR 7.1 -5.4 41% 5 76 0.0
05 22:35 NW 13 16.09 Fair CLR 7.3 -5.4 40% 5 75.97 0.0
05 22:15 NW 13 16.09 Fair CLR 7.8 -5.1 40% 6 75.97 0.0
05 21:55 NW 17 16.09 Fair CLR 8.5 -4.9 39% 6 75.95 0.0
05 21:35 NW 20 16.09 Partly Cloudy SCT170 9.8 -5.2 35% 7 75.92 0.0
05 21:15 NW 26 16.09 Overcast OVC170 10.4 -5.3 33% 75.9 0.0
05 20:55 NW 24 16.09 Mostly Cloudy BKN160 BKN190 10.9 -5.2 32% 75.9 0.0
05 20:35 NW 24 G 37 16.09 Partly Cloudy SCT160 11.4 -5.4 31% 75.87 0.0
05 20:15 NW 30 14.48 Mostly Cloudy BKN150 12 -5.8 29% 75.84 0.0
05 19:55 W 17 14.48 Mostly Cloudy BKN160 12.3 -6.4 27% 75.82 0.0
05 19:35 NW 24 14.48 Overcast BKN150 OVC180 12.5 -6.5 26% 75.82 0.0
05 19:15 NW 30 14.48 Overcast BKN150 OVC170 12.7 -6.7 25% 75.79 0.0
05 18:55 NW 30 16.09 Partly Cloudy SCT150 13.1 -6.5 25% 75.79 0.0
05 18:35 NW 28 16.09 A Few Clouds FEW150 13.4 -6.3 25% 75.79 0.0
05 18:15 NW 28 16.09 Fair CLR 13.5 -6.1 25% 75.77 0.0
05 17:55 NW 35 16.09 Fair and Breezy CLR 13.9 -6.4 24% 75.77 0.0
05 17:35 NW 26 16.09 Fair CLR 14.3 -5.9 24% 75.77 0.0
05 17:15 NW 33 G 46 16.09 A Few Clouds and Breezy FEW080 14.9 -5.7 24% 75.77 0.0
05 16:55 NW 24 G 43 16.09 A Few Clouds FEW190 14.9 -5.9 23% 75.74 0.0
05 16:35 NW 28 G 46 16.09 A Few Clouds FEW080 14.9 -6.1 23% 75.77 0.0
05 16:15 NW 28 G 39 16.09 Fair CLR 15.2 -5.9 23% 75.77 0.0
05 15:55 NW 31 G 44 16.09 A Few Clouds FEW200 15.1 -6.3 22% 75.79 0.0
05 15:35 NW 24 G 44 16.09 A Few Clouds FEW310 15.6 -5.1 24% 75.79 0.0
05 15:15 NW 30 G 48 16.09 Partly Cloudy FEW080 SCT360 15.7 -5.2 23% 75.79 0.0
05 14:35 NW 30 G 50 16.09 A Few Clouds FEW080 16.6 -5.3 22% 75.79 0.0
05 14:15 W 28 G 41 16.09 Mostly Cloudy BKN080 BKN270 16.6 -5.1 22% 75.82 0.0
05 13:55 W 11 G 44 16.09 A Few Clouds FEW080 15.6 -4.8 24% 75.82 0.0
05 13:35 NW 24 G 43 16.09 A Few Clouds FEW075 15.5 -4.8 25% 75.82 0.0
05 13:15 W 20 G 33 16.09 Mostly Cloudy SCT075 BKN140 BKN290 15.5 -4.4 25% 75.84 0.0
05 12:55 W 20 16.09 Mostly Cloudy BKN075 BKN140 14.9 -4.2 27% 75.84 0.0
05 12:35 NW 22 G 31 16.09 Mostly Cloudy SCT075 BKN140 15.4 -4.3 26% 75.87 0.0
05 12:15 W 15 16.09 Overcast BKN070 OVC140 14.1 -4 29% 75.87 0.0
05 11:55 N 19 16.09 Mostly Cloudy SCT070 BKN140 14 -2.4 32% 75.87 0.0
05 11:35 NW 17 16.09 Mostly Cloudy BKN070 13.1 -3.4 32% 75.87 0.0
05 11:15 NW 13 G 26 16.09 A Few Clouds FEW065 13 -3.5 32% 75.87 0.0
05 10:55 NW 15 16.09 Partly Cloudy SCT130 12.8 -2.7 34% 75.87 0.0
05 10:35 N 9 16.09 Mostly Cloudy BKN130 11.8 -2.5 37% 75.87 0.0
05 10:15 N 17 16.09 Overcast OVC130 11.3 -1.9 40% 75.9 0.0
05 09:55 N 15 16.09 Overcast BKN140 OVC160 11.4 -1.5 41% 75.87 0.0
05 09:35 Vrbl 7 16.09 Mostly Cloudy BKN160 11.2 -2.7 38% 75.87 0.0
05 09:15 Vrbl 6 16.09 Partly Cloudy SCT160 10.3 -1.7 43% 75.87 0.0
05 08:55 N 9 16.09 Fair CLR 10.8 -1.1 44% 75.84 0.0
05 08:35 NE 9 16.09 Fair CLR 10.1 -0.6 48% 75.82 0.0
05 08:15 NE 6 16.09 Fair CLR 9.4 2.1 61% 75.79 0.0
05 07:55 NE 6 16.09 Partly Cloudy SCT150 8.5 3 69% 75.79 0.0
05 07:35 Calm 16.09 A Few Clouds FEW150 8 2.8 70% 75.77 0.0
05 07:15 Calm 16.09 Fair CLR 6.9 4 82% 75.79 0.0
05 06:55 Calm 16.09 Fair CLR 5.6 3.8 88% 75.79 0.0
05 06:35 SW 6 16.09 Fair CLR 5.2 2.6 84% 75.77 0.0
05 06:15 SW 7 16.09 Fair CLR 4.7 2.7 87% 3 75.77 0.0
05 05:55 Calm 16.09 Fair CLR 5.6 2.6 81% 75.74 0.0
05 05:35 Calm 16.09 A Few Clouds FEW200 5.7 3 83% 75.74 0.0
05 05:15 Calm 16.09 Partly Cloudy SCT190 6.4 2.3 75% 75.69 0.0
05 04:55 NE 6 16.09 Partly Cloudy SCT190 7.4 0.6 62% 75.69 0.0
05 04:35 N 6 16.09 Fair CLR 7.8 0.1 59% 75.69 0.0
05 04:15 N 7 16.09 Fair CLR 7.6 1 63% 7 75.64 0.0
05 03:55 N 9 16.09 Fair CLR 7.8 1.2 63% 6 75.62 0.0
05 03:35 N 9 16.09 A Few Clouds FEW140 8 1.7 65% 7 75.59 0.0
05 03:15 N 9 16.09 Partly Cloudy SCT140 8.1 1.5 63% 7 75.57 0.0
05 02:55 NW 13 16.09 Mostly Cloudy BKN140 9.2 1.4 58% 7 75.57 0.0
05 02:35 N 9 16.09 Overcast FEW046 SCT060 BKN090 BKN130 OVC160 9.1 2.7 65% 8 75.54 0.0
05 02:15 NW 9 16.09 Overcast BKN090 OVC110 9.6 3.7 67% 9 75.62 0.0
05 01:55 NW 6 16.09 Overcast FEW060 SCT075 BKN090 OVC110 9.9 2.2 59% 75.59 0.0
05 01:35 NW 15 16.09 Overcast SCT070 OVC090 10.2 1.7 56% 75.64 0.0
05 01:15 N 15 16.09 Mostly Cloudy FEW049 SCT060 BKN080 BKN090 9.6 2.4 61% 8 75.59 0.0
05 00:55 N 11 14.48 Light Rain FEW023 SCT050 BKN060 OVC085 9.8 2.1 59% 8 75.59 0.0
05 00:35 N 15 16.09 Overcast FEW046 SCT060 BKN085 OVC100 10 1.8 57% 8 75.59 0.0
05 00:15 NW 17 12.87 Light Rain FEW043 BKN075 OVC100 9.6 2.3 61% 7 75.59 0.0
04 23:55 NW 22 12.87 Light Rain FEW050 BKN070 OVC095 10.3 1.3 54% 75.57 0.0
04 23:35 N 28 12.87 Light Rain SCT075 OVC100 10.1 1.5 55% 75.51 0.0
04 23:15 N 33 G 46 11.27 Light Rain and Breezy BKN080 OVC095 10 2 58% 7 75.51 0.0
04 22:55 N 35 G 46 14.48 Light Rain and Breezy FEW035 OVC080 11.3 1.1 50% 75.54 0.0
04 22:35 NW 26 12.87 Light Rain FEW065 BKN080 BKN110 OVC140 11.7 2 52% 75.57 0.0
04 22:15 N 43 G 50 14.48 Overcast and Windy SCT110 OVC140 12.9 -0.1 41% 75.46 0.0
04 21:55 NW 28 16.09 Overcast FEW095 BKN120 OVC160 13 -0.3 40% 75.49 0.0
04 21:35 N 26 16.09 Overcast FEW095 OVC130 13.3 -1 38% 75.44 0.0
04 21:15 NW 33 16.09 Overcast and Breezy FEW100 OVC140 13.8 -0.3 38% 75.46 0.0
04 20:55 NW 37 G 46 16.09 Overcast and Breezy OVC120 14.3 -0.7 36% 75.44 0.0
04 20:35 NW 31 16.09 Overcast OVC120 14.5 -0.4 36% 75.41 0.0
04 20:15 NW 41 G 59 14.48 Overcast and Breezy BKN120 OVC140 15.2 -0.6 34% 75.36 0.0
04 19:55 N 41 G 59 14.48 Overcast and Breezy OVC130 15.9 -0.5 33% 75.31 0.0
04 19:35 NW 46 G 52 14.48 Mostly Cloudy and Windy BKN140 17.6 -0.5 29% 75.26 0.0
04 19:15 N 35 G 56 11.27 Fair and Breezy CLR 18.7 -0.5 28% 75.23 0.0
04 18:55 N 37 G 48 14.48 Fair and Breezy CLR 20.1 0 26% 75.21 0.0
04 18:35 N 37 G 52 14.48 Fair and Breezy CLR 21 0.7 26% 75.21 0.0
04 18:15 NW 37 G 50 14.48 Fair and Breezy CLR 22.2 1.1 25% 75.18 0.0
04 17:55 NW 31 G 50 16.09 Fair CLR 23.3 1.2 23% 75.16 0.0
04 17:35 NW 33 G 50 14.48 Fair and Breezy CLR 23.5 0.9 23% 75.13 0.0
04 17:15 NW 31 G 46 16.09 Fair CLR 24.6 0.9 21% 25 75.11 0.0
04 16:55 NW 30 G 39 16.09 Fair CLR 25 1.8 22% 25 75.08 0.0
04 16:35 N 26 G 44 14.48 Fair CLR 25 2.2 23% 25 75.06 0.0
04 16:15 N 30 16.09 Fair CLR 25.7 3.7 24% 25 75.03 0.0
04 15:55 N 28 16.09 Fair CLR 25.5 4.5 26% 25 75.03 0.0
04 15:35 NW 30 G 46 16.09 Fair CLR 26.1 5.6 27% 26 75.01 0.0
04 15:15 NW 33 G 48 16.09 Fair and Breezy CLR 27.6 4.8 23% 27 75.01 0.0
04 14:55 NW 37 G 50 16.09 Fair and Breezy CLR 27.4 5.8 25% 26 75.01 0.0
04 14:35 NW 39 G 50 16.09 A Few Clouds and Breezy FEW090 28.2 5.1 23% 27 74.98 0.0
04 14:15 NW 28 G 43 16.09 A Few Clouds FEW100 28 4 21% 27 74.98 0.0
04 13:55 W 31 G 46 16.09 A Few Clouds FEW100 28.4 3.1 20% 27 74.98 0.0
04 13:35 W 35 G 44 16.09 Fair and Breezy CLR 28.4 3.1 20% 27 74.98 0.0
04 13:15 NW 22 G 41 16.09 Fair CLR 27.9 3 20% 27 74.98 0.0
04 12:55 W 31 16.09 Fair CLR 27.8 3.6 21% 27 75.01 0.0
04 12:35 W 37 G 52 16.09 A Few Clouds and Breezy FEW330 27.3 3.6 22% 26 75.01 0.0
04 12:15 W 33 G 50 16.09 Fair and Breezy CLR 27.3 3.7 22% 26 75.01 0.0
04 11:55 W 35 G 48 16.09 Fair and Breezy CLR 26.9 3.8 23% 26 75.01 0.0
04 11:35 W 35 G 48 16.09 Fair and Breezy CLR 26.8 4.3 24% 26 75.01 0.0
04 11:15 W 37 16.09 Fair and Breezy CLR 26.7 4.1 23% 26 75.01 0.0
04 10:55 W 31 G 44 16.09 Fair CLR 26.1 3.7 24% 26 75.01 0.0
04 10:35 W 28 12.87 Fair CLR 25.6 5.3 27% 26 75.01 0.0
04 10:15 SW 24 8.05 Fair with Haze CLR 24.6 6.9 32% 25 75.01 0.0
04 09:55 SW 19 6.44 Fair with Haze CLR 22.8 7 36% 75.03 0.0
04 09:35 SW 19 4.83 A Few Clouds with Haze FEW100 21.6 6.6 38% 75.06 0.0
04 09:15 SW 13 4.83 Fair with Haze CLR 19.8 6 41% 75.06 0.0
04 08:55 SW 9 4.83 Fair with Haze CLR 18.1 5.4 43% 75.08 0.0
04 08:35 S 7 4.83 A Few Clouds with Haze FEW100 16.4 5.7 49% 75.08 0.0
04 08:15 SW 6 8.05 A Few Clouds with Haze FEW100 14.6 5.1 53% 75.11 0.0
04 07:55 Calm 2.82 Mostly Cloudy with Haze BKN100 12.1 5.8 66% 75.11 0.0
04 07:35 S 6 4.83 Haze NULL 10.8 6.1 73% 75.11 0.0
04 07:20 Calm 0.00 NULL NULL 9.7 6.1 78% 75.11 0.0
Date Time (cdt) Wind (kph) Vis. (km) Weather Sky Cond. Air Dwpt Max. Min. Relative Humidity Wind Chill (°C) Heat Index (°C) altimeter (cm) sea level (mb) 1 hr 3 hr 6 hr
6 hour
Temperature (ºC) Pressure Precipitation (cm)